sensor_id;sensor_type;location;lat;lon;timestamp;temperature;humidity
8463;DHT22;4268;52.506;13.462;2023-07-13T00:00:44;20.90;84.30
8463;DHT22;4268;52.506;13.462;2023-07-13T00:03:10;20.90;84.20
8463;DHT22;4268;52.506;13.462;2023-07-13T00:05:39;20.90;84.40
8463;DHT22;4268;52.506;13.462;2023-07-13T00:08:05;20.90;84.50
8463;DHT22;4268;52.506;13.462;2023-07-13T00:10:30;20.90;84.80
8463;DHT22;4268;52.506;13.462;2023-07-13T00:12:57;20.80;85.00
8463;DHT22;4268;52.506;13.462;2023-07-13T00:15:24;20.80;85.40
8463;DHT22;4268;52.506;13.462;2023-07-13T00:17:52;20.80;85.60
8463;DHT22;4268;52.506;13.462;2023-07-13T00:20:18;20.70;85.70
8463;DHT22;4268;52.506;13.462;2023-07-13T00:22:43;20.70;86.00
8463;DHT22;4268;52.506;13.462;2023-07-13T00:25:12;20.70;86.10
8463;DHT22;4268;52.506;13.462;2023-07-13T00:27:38;20.60;86.30
8463;DHT22;4268;52.506;13.462;2023-07-13T00:30:03;20.60;86.60
8463;DHT22;4268;52.506;13.462;2023-07-13T00:32:29;20.60;86.70
8463;DHT22;4268;52.506;13.462;2023-07-13T00:34:55;20.40;86.70
8463;DHT22;4268;52.506;13.462;2023-07-13T00:37:21;20.50;86.80
8463;DHT22;4268;52.506;13.462;2023-07-13T00:39:46;20.50;86.60
8463;DHT22;4268;52.506;13.462;2023-07-13T00:42:12;20.60;86.00
8463;DHT22;4268;52.506;13.462;2023-07-13T00:44:38;20.40;85.80
8463;DHT22;4268;52.506;13.462;2023-07-13T00:47:05;20.60;86.20
8463;DHT22;4268;52.506;13.462;2023-07-13T00:49:32;20.40;86.20
8463;DHT22;4268;52.506;13.462;2023-07-13T00:52:02;20.40;86.50
8463;DHT22;4268;52.506;13.462;2023-07-13T00:54:38;20.40;87.30
8463;DHT22;4268;52.506;13.462;2023-07-13T00:57:08;20.40;86.50
8463;DHT22;4268;52.506;13.462;2023-07-13T00:59:35;20.40;86.50
8463;DHT22;4268;52.506;13.462;2023-07-13T01:02:03;20.30;86.50
8463;DHT22;4268;52.506;13.462;2023-07-13T01:04:29;20.30;86.60
8463;DHT22;4268;52.506;13.462;2023-07-13T01:06:55;20.30;86.80
8463;DHT22;4268;52.506;13.462;2023-07-13T01:09:22;20.40;86.90
8463;DHT22;4268;52.506;13.462;2023-07-13T01:11:47;20.30;86.60
8463;DHT22;4268;52.506;13.462;2023-07-13T01:14:13;20.10;86.70
8463;DHT22;4268;52.506;13.462;2023-07-13T01:16:40;20.10;87.00
8463;DHT22;4268;52.506;13.462;2023-07-13T01:19:29;20.90;88.30
8463;DHT22;4268;52.506;13.462;2023-07-13T01:22:02;20.00;87.60
8463;DHT22;4268;52.506;13.462;2023-07-13T01:24:28;20.00;88.00
8463;DHT22;4268;52.506;13.462;2023-07-13T01:26:54;19.90;88.00
8463;DHT22;4268;52.506;13.462;2023-07-13T01:29:20;19.40;87.40
8463;DHT22;4268;52.506;13.462;2023-07-13T01:31:45;19.90;88.10
8463;DHT22;4268;52.506;13.462;2023-07-13T01:34:11;19.90;88.30
8463;DHT22;4268;52.506;13.462;2023-07-13T01:36:36;19.90;88.40
8463;DHT22;4268;52.506;13.462;2023-07-13T01:39:02;19.90;88.60
8463;DHT22;4268;52.506;13.462;2023-07-13T01:41:28;19.90;88.60
8463;DHT22;4268;52.506;13.462;2023-07-13T01:43:53;20.20;88.80
8463;DHT22;4268;52.506;13.462;2023-07-13T01:46:19;19.80;88.50
8463;DHT22;4268;52.506;13.462;2023-07-13T01:48:44;19.80;88.60
8463;DHT22;4268;52.506;13.462;2023-07-13T01:51:10;20.10;88.70
8463;DHT22;4268;52.506;13.462;2023-07-13T01:53:36;19.80;88.60
8463;DHT22;4268;52.506;13.462;2023-07-13T01:56:02;19.80;89.40
8463;DHT22;4268;52.506;13.462;2023-07-13T01:58:27;19.80;89.60
8463;DHT22;4268;52.506;13.462;2023-07-13T02:00:53;19.90;89.80
8463;DHT22;4268;52.506;13.462;2023-07-13T02:03:18;19.70;89.70
8463;DHT22;4268;52.506;13.462;2023-07-13T02:05:45;19.50;89.90
8463;DHT22;4268;52.506;13.462;2023-07-13T02:08:11;19.70;90.00
8463;DHT22;4268;52.506;13.462;2023-07-13T02:10:37;19.60;90.00
8463;DHT22;4268;52.506;13.462;2023-07-13T02:13:05;19.60;90.00
8463;DHT22;4268;52.506;13.462;2023-07-13T02:15:31;19.60;90.00
8463;DHT22;4268;52.506;13.462;2023-07-13T02:17:57;19.60;90.00
8463;DHT22;4268;52.506;13.462;2023-07-13T02:20:24;19.60;90.00
8463;DHT22;4268;52.506;13.462;2023-07-13T02:22:50;20.70;90.70
8463;DHT22;4268;52.506;13.462;2023-07-13T02:25:15;20.40;90.70
8463;DHT22;4268;52.506;13.462;2023-07-13T02:27:41;19.60;90.40
8463;DHT22;4268;52.506;13.462;2023-07-13T02:30:07;19.70;90.40
8463;DHT22;4268;52.506;13.462;2023-07-13T02:32:32;19.70;90.40
8463;DHT22;4268;52.506;13.462;2023-07-13T02:34:59;19.70;90.50
8463;DHT22;4268;52.506;13.462;2023-07-13T02:37:24;19.60;90.50
8463;DHT22;4268;52.506;13.462;2023-07-13T02:39:50;19.70;90.60
8463;DHT22;4268;52.506;13.462;2023-07-13T02:42:16;19.60;90.50
8463;DHT22;4268;52.506;13.462;2023-07-13T02:44:41;19.60;90.50
8463;DHT22;4268;52.506;13.462;2023-07-13T02:47:07;19.60;90.60
8463;DHT22;4268;52.506;13.462;2023-07-13T02:49:32;19.60;91.00
8463;DHT22;4268;52.506;13.462;2023-07-13T02:51:58;20.00;91.30
8463;DHT22;4268;52.506;13.462;2023-07-13T02:54:23;19.60;91.20
8463;DHT22;4268;52.506;13.462;2023-07-13T02:56:49;19.50;91.50
8463;DHT22;4268;52.506;13.462;2023-07-13T02:59:14;19.30;91.60
8463;DHT22;4268;52.506;13.462;2023-07-13T03:01:40;19.40;91.80
8463;DHT22;4268;52.506;13.462;2023-07-13T03:04:06;19.30;91.70
8463;DHT22;4268;52.506;13.462;2023-07-13T03:06:33;19.40;91.90
8463;DHT22;4268;52.506;13.462;2023-07-13T03:08:59;19.50;91.90
8463;DHT22;4268;52.506;13.462;2023-07-13T03:11:25;19.40;91.90
8463;DHT22;4268;52.506;13.462;2023-07-13T03:13:52;19.40;91.90
8463;DHT22;4268;52.506;13.462;2023-07-13T03:16:17;19.40;91.90
8463;DHT22;4268;52.506;13.462;2023-07-13T03:18:43;19.50;92.00
8463;DHT22;4268;52.506;13.462;2023-07-13T03:21:09;19.40;92.00
8463;DHT22;4268;52.506;13.462;2023-07-13T03:23:35;19.50;92.10
8463;DHT22;4268;52.506;13.462;2023-07-13T03:26:03;19.40;92.10
8463;DHT22;4268;52.506;13.462;2023-07-13T03:28:29;19.40;92.30
8463;DHT22;4268;52.506;13.462;2023-07-13T03:31:11;19.40;92.30
8463;DHT22;4268;52.506;13.462;2023-07-13T03:33:37;19.40;92.40
8463;DHT22;4268;52.506;13.462;2023-07-13T03:36:05;19.40;92.40
8463;DHT22;4268;52.506;13.462;2023-07-13T03:38:31;19.40;92.50
8463;DHT22;4268;52.506;13.462;2023-07-13T03:40:56;19.50;92.60
8463;DHT22;4268;52.506;13.462;2023-07-13T03:43:21;19.00;92.30
8463;DHT22;4268;52.506;13.462;2023-07-13T03:45:47;19.60;92.40
8463;DHT22;4268;52.506;13.462;2023-07-13T03:48:13;19.60;92.50
8463;DHT22;4268;52.506;13.462;2023-07-13T03:50:39;20.00;92.50
8463;DHT22;4268;52.506;13.462;2023-07-13T03:53:05;19.60;92.30
8463;DHT22;4268;52.506;13.462;2023-07-13T03:55:30;19.60;92.30
8463;DHT22;4268;52.506;13.462;2023-07-13T03:58:34;19.60;92.30
8463;DHT22;4268;52.506;13.462;2023-07-13T04:01:01;19.60;92.40
8463;DHT22;4268;52.506;13.462;2023-07-13T04:03:28;19.60;92.40
8463;DHT22;4268;52.506;13.462;2023-07-13T04:05:57;19.50;92.30
8463;DHT22;4268;52.506;13.462;2023-07-13T04:08:29;19.60;92.40
8463;DHT22;4268;52.506;13.462;2023-07-13T04:10:55;19.60;92.40
8463;DHT22;4268;52.506;13.462;2023-07-13T04:13:21;19.60;92.40
8463;DHT22;4268;52.506;13.462;2023-07-13T04:15:47;19.70;92.30
8463;DHT22;4268;52.506;13.462;2023-07-13T04:18:12;19.10;92.10
8463;DHT22;4268;52.506;13.462;2023-07-13T04:20:38;19.60;92.40
8463;DHT22;4268;52.506;13.462;2023-07-13T04:23:03;19.70;92.40
8463;DHT22;4268;52.506;13.462;2023-07-13T04:25:29;19.80;92.30
8463;DHT22;4268;52.506;13.462;2023-07-13T04:27:56;19.70;92.10
8463;DHT22;4268;52.506;13.462;2023-07-13T04:30:22;19.70;92.40
8463;DHT22;4268;52.506;13.462;2023-07-13T04:32:49;19.70;92.00
8463;DHT22;4268;52.506;13.462;2023-07-13T04:35:15;19.70;92.10
8463;DHT22;4268;52.506;13.462;2023-07-13T04:37:40;19.70;92.20
8463;DHT22;4268;52.506;13.462;2023-07-13T04:40:07;19.70;92.30
8463;DHT22;4268;52.506;13.462;2023-07-13T04:42:36;19.70;92.40
8463;DHT22;4268;52.506;13.462;2023-07-13T04:45:02;19.70;92.20
8463;DHT22;4268;52.506;13.462;2023-07-13T04:47:30;19.70;92.30
8463;DHT22;4268;52.506;13.462;2023-07-13T04:49:55;19.70;92.20
8463;DHT22;4268;52.506;13.462;2023-07-13T04:52:22;19.60;92.20
8463;DHT22;4268;52.506;13.462;2023-07-13T04:54:47;20.00;92.20
8463;DHT22;4268;52.506;13.462;2023-07-13T04:57:14;19.80;92.10
8463;DHT22;4268;52.506;13.462;2023-07-13T04:59:39;19.90;92.20
8463;DHT22;4268;52.506;13.462;2023-07-13T05:02:07;19.90;92.20
8463;DHT22;4268;52.506;13.462;2023-07-13T05:04:33;20.00;92.20
8463;DHT22;4268;52.506;13.462;2023-07-13T05:06:59;20.00;92.10
8463;DHT22;4268;52.506;13.462;2023-07-13T05:09:24;20.20;92.10
8463;DHT22;4268;52.506;13.462;2023-07-13T05:11:53;19.10;91.40
8463;DHT22;4268;52.506;13.462;2023-07-13T05:14:19;20.20;91.90
8463;DHT22;4268;52.506;13.462;2023-07-13T05:16:47;20.20;91.90
8463;DHT22;4268;52.506;13.462;2023-07-13T05:19:12;20.40;91.80
8463;DHT22;4268;52.506;13.462;2023-07-13T05:21:38;19.90;91.50
8463;DHT22;4268;52.506;13.462;2023-07-13T05:24:04;20.30;91.60
8463;DHT22;4268;52.506;13.462;2023-07-13T05:26:29;20.40;91.70
8463;DHT22;4268;52.506;13.462;2023-07-13T05:28:55;21.30;92.20
8463;DHT22;4268;52.506;13.462;2023-07-13T05:31:22;20.50;91.70
8463;DHT22;4268;52.506;13.462;2023-07-13T05:33:48;21.50;92.00
8463;DHT22;4268;52.506;13.462;2023-07-13T05:36:13;20.50;91.50
8463;DHT22;4268;52.506;13.462;2023-07-13T05:38:45;20.50;91.30
8463;DHT22;4268;52.506;13.462;2023-07-13T05:41:10;20.70;91.40
8463;DHT22;4268;52.506;13.462;2023-07-13T05:43:42;20.70;91.20
8463;DHT22;4268;52.506;13.462;2023-07-13T05:46:07;20.70;91.10
8463;DHT22;4268;52.506;13.462;2023-07-13T05:48:32;20.70;90.90
8463;DHT22;4268;52.506;13.462;2023-07-13T05:50:58;20.80;91.00
8463;DHT22;4268;52.506;13.462;2023-07-13T05:53:23;20.90;91.00
8463;DHT22;4268;52.506;13.462;2023-07-13T05:55:49;21.00;91.10
8463;DHT22;4268;52.506;13.462;2023-07-13T05:58:19;21.20;90.90
8463;DHT22;4268;52.506;13.462;2023-07-13T06:00:46;21.00;90.90
8463;DHT22;4268;52.506;13.462;2023-07-13T06:03:12;21.20;90.80
8463;DHT22;4268;52.506;13.462;2023-07-13T06:05:41;21.20;90.80
8463;DHT22;4268;52.506;13.462;2023-07-13T06:08:10;21.40;90.80
8463;DHT22;4268;52.506;13.462;2023-07-13T06:10:36;21.90;90.20
8463;DHT22;4268;52.506;13.462;2023-07-13T06:13:01;22.50;89.40
8463;DHT22;4268;52.506;13.462;2023-07-13T06:15:27;23.80;88.60
8463;DHT22;4268;52.506;13.462;2023-07-13T06:17:52;24.60;85.00
8463;DHT22;4268;52.506;13.462;2023-07-13T06:20:18;26.90;81.30
8463;DHT22;4268;52.506;13.462;2023-07-13T06:22:43;27.60;76.70
8463;DHT22;4268;52.506;13.462;2023-07-13T06:25:09;29.50;72.40
8463;DHT22;4268;52.506;13.462;2023-07-13T06:27:35;29.80;69.90
8463;DHT22;4268;52.506;13.462;2023-07-13T06:30:00;30.50;67.10
8463;DHT22;4268;52.506;13.462;2023-07-13T06:32:26;31.20;65.20
8463;DHT22;4268;52.506;13.462;2023-07-13T06:34:51;31.50;63.50
8463;DHT22;4268;52.506;13.462;2023-07-13T06:37:17;32.10;62.40
8463;DHT22;4268;52.506;13.462;2023-07-13T06:39:43;32.60;60.40
8463;DHT22;4268;52.506;13.462;2023-07-13T06:42:09;33.10;59.30
8463;DHT22;4268;52.506;13.462;2023-07-13T06:44:34;33.40;58.90
8463;DHT22;4268;52.506;13.462;2023-07-13T06:47:00;33.90;57.80
8463;DHT22;4268;52.506;13.462;2023-07-13T06:49:25;34.20;56.80
8463;DHT22;4268;52.506;13.462;2023-07-13T06:51:51;34.50;56.20
8463;DHT22;4268;52.506;13.462;2023-07-13T06:54:16;34.80;55.20
8463;DHT22;4268;52.506;13.462;2023-07-13T06:56:42;34.90;54.90
8463;DHT22;4268;52.506;13.462;2023-07-13T06:59:08;35.00;54.00
8463;DHT22;4268;52.506;13.462;2023-07-13T07:01:33;35.20;53.40
8463;DHT22;4268;52.506;13.462;2023-07-13T07:03:59;35.20;53.40
8463;DHT22;4268;52.506;13.462;2023-07-13T07:06:24;35.30;52.60
8463;DHT22;4268;52.506;13.462;2023-07-13T07:08:51;35.20;52.50
8463;DHT22;4268;52.506;13.462;2023-07-13T07:11:19;34.80;52.00
8463;DHT22;4268;52.506;13.462;2023-07-13T07:13:45;34.10;52.70
8463;DHT22;4268;52.506;13.462;2023-07-13T07:16:11;33.10;53.60
8463;DHT22;4268;52.506;13.462;2023-07-13T07:18:37;32.20;55.00
8463;DHT22;4268;52.506;13.462;2023-07-13T07:21:03;31.80;56.20
8463;DHT22;4268;52.506;13.462;2023-07-13T07:23:28;31.40;56.70
8463;DHT22;4268;52.506;13.462;2023-07-13T07:25:54;30.80;57.30
8463;DHT22;4268;52.506;13.462;2023-07-13T07:28:20;30.50;58.20
8463;DHT22;4268;52.506;13.462;2023-07-13T07:30:46;30.40;58.80
8463;DHT22;4268;52.506;13.462;2023-07-13T07:33:12;30.30;58.90
8463;DHT22;4268;52.506;13.462;2023-07-13T07:35:38;30.20;58.70
8463;DHT22;4268;52.506;13.462;2023-07-13T07:38:04;30.30;58.60
8463;DHT22;4268;52.506;13.462;2023-07-13T07:40:29;30.30;58.20
8463;DHT22;4268;52.506;13.462;2023-07-13T07:42:55;30.00;58.40
8463;DHT22;4268;52.506;13.462;2023-07-13T07:45:21;29.80;58.30
8463;DHT22;4268;52.506;13.462;2023-07-13T07:47:46;29.80;58.80
8463;DHT22;4268;52.506;13.462;2023-07-13T07:50:13;29.60;58.20
8463;DHT22;4268;52.506;13.462;2023-07-13T07:52:38;29.40;58.70
8463;DHT22;4268;52.506;13.462;2023-07-13T07:55:05;29.00;60.00
8463;DHT22;4268;52.506;13.462;2023-07-13T07:57:31;28.70;60.80
8463;DHT22;4268;52.506;13.462;2023-07-13T07:59:57;28.90;61.10
8463;DHT22;4268;52.506;13.462;2023-07-13T08:02:24;28.90;61.20
8463;DHT22;4268;52.506;13.462;2023-07-13T08:04:49;28.50;61.50
8463;DHT22;4268;52.506;13.462;2023-07-13T08:07:15;28.00;62.50
8463;DHT22;4268;52.506;13.462;2023-07-13T08:09:40;27.70;63.40
8463;DHT22;4268;52.506;13.462;2023-07-13T08:12:06;27.50;63.20
8463;DHT22;4268;52.506;13.462;2023-07-13T08:14:32;27.40;63.70
8463;DHT22;4268;52.506;13.462;2023-07-13T08:16:58;27.30;64.40
8463;DHT22;4268;52.506;13.462;2023-07-13T08:19:23;27.20;64.80
8463;DHT22;4268;52.506;13.462;2023-07-13T08:21:49;27.10;65.20
8463;DHT22;4268;52.506;13.462;2023-07-13T08:24:15;27.30;64.90
8463;DHT22;4268;52.506;13.462;2023-07-13T08:26:40;27.60;64.60
8463;DHT22;4268;52.506;13.462;2023-07-13T08:29:06;27.70;63.40
8463;DHT22;4268;52.506;13.462;2023-07-13T08:31:32;27.40;62.60
8463;DHT22;4268;52.506;13.462;2023-07-13T08:33:57;27.20;63.70
8463;DHT22;4268;52.506;13.462;2023-07-13T08:36:23;27.20;64.30
8463;DHT22;4268;52.506;13.462;2023-07-13T08:38:48;27.10;64.70
8463;DHT22;4268;52.506;13.462;2023-07-13T08:41:16;27.20;64.00
8463;DHT22;4268;52.506;13.462;2023-07-13T08:43:46;27.10;64.20
8463;DHT22;4268;52.506;13.462;2023-07-13T08:49:06;27.10;63.30
8463;DHT22;4268;52.506;13.462;2023-07-13T08:51:45;27.00;65.10
8463;DHT22;4268;52.506;13.462;2023-07-13T08:54:38;27.00;64.60
8463;DHT22;4268;52.506;13.462;2023-07-13T08:57:14;26.90;65.00
8463;DHT22;4268;52.506;13.462;2023-07-13T08:59:41;26.90;65.40
8463;DHT22;4268;52.506;13.462;2023-07-13T09:02:41;26.80;65.80
8463;DHT22;4268;52.506;13.462;2023-07-13T09:05:18;26.50;66.90
8463;DHT22;4268;52.506;13.462;2023-07-13T09:10:50;26.30;66.10
8463;DHT22;4268;52.506;13.462;2023-07-13T09:15:51;26.60;65.70
8463;DHT22;4268;52.506;13.462;2023-07-13T09:18:37;26.60;66.00
8463;DHT22;4268;52.506;13.462;2023-07-13T09:21:10;26.70;64.80
8463;DHT22;4268;52.506;13.462;2023-07-13T09:23:38;26.50;64.70
8463;DHT22;4268;52.506;13.462;2023-07-13T09:28:38;26.50;64.70
8463;DHT22;4268;52.506;13.462;2023-07-13T09:31:10;26.50;64.70
8463;DHT22;4268;52.506;13.462;2023-07-13T09:33:38;26.40;63.90
8463;DHT22;4268;52.506;13.462;2023-07-13T09:36:20;26.20;64.10
8463;DHT22;4268;52.506;13.462;2023-07-13T09:38:48;26.20;64.10
8463;DHT22;4268;52.506;13.462;2023-07-13T09:41:55;26.10;63.80
8463;DHT22;4268;52.506;13.462;2023-07-13T09:44:30;26.20;64.40
8463;DHT22;4268;52.506;13.462;2023-07-13T09:46:57;26.20;64.00
8463;DHT22;4268;52.506;13.462;2023-07-13T09:49:36;26.20;62.60
8463;DHT22;4268;52.506;13.462;2023-07-13T09:52:06;26.10;63.50
8463;DHT22;4268;52.506;13.462;2023-07-13T09:54:36;26.20;62.80
8463;DHT22;4268;52.506;13.462;2023-07-13T09:57:11;26.20;61.50
8463;DHT22;4268;52.506;13.462;2023-07-13T09:59:41;26.20;61.80
8463;DHT22;4268;52.506;13.462;2023-07-13T10:02:24;26.20;60.60
8463;DHT22;4268;52.506;13.462;2023-07-13T10:04:56;26.20;61.30
8463;DHT22;4268;52.506;13.462;2023-07-13T10:07:23;26.00;60.90
8463;DHT22;4268;52.506;13.462;2023-07-13T10:09:53;25.90;61.10
8463;DHT22;4268;52.506;13.462;2023-07-13T10:12:20;25.80;61.50
8463;DHT22;4268;52.506;13.462;2023-07-13T10:14:46;25.70;62.50
8463;DHT22;4268;52.506;13.462;2023-07-13T10:17:14;25.70;62.20
8463;DHT22;4268;52.506;13.462;2023-07-13T10:19:41;25.60;62.20
8463;DHT22;4268;52.506;13.462;2023-07-13T10:22:32;25.70;62.20
8463;DHT22;4268;52.506;13.462;2023-07-13T10:25:01;25.80;62.60
8463;DHT22;4268;52.506;13.462;2023-07-13T10:27:36;25.90;62.90
8463;DHT22;4268;52.506;13.462;2023-07-13T10:30:19;25.90;62.20
8463;DHT22;4268;52.506;13.462;2023-07-13T10:32:46;25.80;63.00
8463;DHT22;4268;52.506;13.462;2023-07-13T10:35:14;25.90;63.00
8463;DHT22;4268;52.506;13.462;2023-07-13T10:40:28;25.80;62.40
8463;DHT22;4268;52.506;13.462;2023-07-13T10:42:57;25.80;63.00
8463;DHT22;4268;52.506;13.462;2023-07-13T10:45:26;25.80;61.70
8463;DHT22;4268;52.506;13.462;2023-07-13T10:47:54;25.90;60.40
8463;DHT22;4268;52.506;13.462;2023-07-13T10:50:24;25.80;60.70
8463;DHT22;4268;52.506;13.462;2023-07-13T10:53:02;25.70;61.10
8463;DHT22;4268;52.506;13.462;2023-07-13T10:55:37;25.80;64.10
8463;DHT22;4268;52.506;13.462;2023-07-13T10:58:12;25.80;64.40
8463;DHT22;4268;52.506;13.462;2023-07-13T11:01:06;25.90;62.40
8463;DHT22;4268;52.506;13.462;2023-07-13T11:03:35;26.00;64.10
8463;DHT22;4268;52.506;13.462;2023-07-13T11:09:17;25.80;61.70
8463;DHT22;4268;52.506;13.462;2023-07-13T11:11:43;25.80;62.80
8463;DHT22;4268;52.506;13.462;2023-07-13T11:14:35;25.80;60.80
8463;DHT22;4268;52.506;13.462;2023-07-13T11:22:43;25.70;62.10
8463;DHT22;4268;52.506;13.462;2023-07-13T11:30:38;25.80;61.10
8463;DHT22;4268;52.506;13.462;2023-07-13T11:35:47;26.50;61.50
8463;DHT22;4268;52.506;13.462;2023-07-13T11:38:18;25.90;61.50
8463;DHT22;4268;52.506;13.462;2023-07-13T11:40:47;25.90;62.10
8463;DHT22;4268;52.506;13.462;2023-07-13T11:43:14;25.90;60.70
8463;DHT22;4268;52.506;13.462;2023-07-13T11:45:41;26.50;60.90
8463;DHT22;4268;52.506;13.462;2023-07-13T11:48:28;27.00;61.50
8463;DHT22;4268;52.506;13.462;2023-07-13T11:51:04;26.10;59.50
8463;DHT22;4268;52.506;13.462;2023-07-13T11:53:45;26.10;60.30
8463;DHT22;4268;52.506;13.462;2023-07-13T11:56:12;26.10;60.50
8463;DHT22;4268;52.506;13.462;2023-07-13T11:58:38;25.00;59.20
8463;DHT22;4268;52.506;13.462;2023-07-13T12:01:04;26.10;61.30
8463;DHT22;4268;52.506;13.462;2023-07-13T12:03:32;26.10;60.10
8463;DHT22;4268;52.506;13.462;2023-07-13T12:06:04;26.20;60.80
8463;DHT22;4268;52.506;13.462;2023-07-13T12:08:31;26.10;60.40
8463;DHT22;4268;52.506;13.462;2023-07-13T12:11:05;26.00;59.10
8463;DHT22;4268;52.506;13.462;2023-07-13T12:13:35;26.00;59.20
8463;DHT22;4268;52.506;13.462;2023-07-13T12:16:01;26.00;58.10
8463;DHT22;4268;52.506;13.462;2023-07-13T12:18:30;26.00;58.40
8463;DHT22;4268;52.506;13.462;2023-07-13T12:20:58;26.00;58.60
8463;DHT22;4268;52.506;13.462;2023-07-13T12:23:29;26.00;58.70
8463;DHT22;4268;52.506;13.462;2023-07-13T12:25:57;26.10;60.00
8463;DHT22;4268;52.506;13.462;2023-07-13T12:28:33;26.00;59.80
8463;DHT22;4268;52.506;13.462;2023-07-13T12:31:01;25.90;59.60
8463;DHT22;4268;52.506;13.462;2023-07-13T12:33:31;26.00;60.10
8463;DHT22;4268;52.506;13.462;2023-07-13T12:36:00;26.00;60.60
8463;DHT22;4268;52.506;13.462;2023-07-13T12:38:27;26.00;62.20
8463;DHT22;4268;52.506;13.462;2023-07-13T12:40:53;26.00;60.30
8463;DHT22;4268;52.506;13.462;2023-07-13T12:43:23;26.10;60.70
8463;DHT22;4268;52.506;13.462;2023-07-13T12:46:02;26.10;59.90
8463;DHT22;4268;52.506;13.462;2023-07-13T12:48:28;26.00;59.00
8463;DHT22;4268;52.506;13.462;2023-07-13T12:50:55;26.10;59.60
8463;DHT22;4268;52.506;13.462;2023-07-13T12:53:29;26.10;59.70
8463;DHT22;4268;52.506;13.462;2023-07-13T12:55:58;26.10;59.90
8463;DHT22;4268;52.506;13.462;2023-07-13T12:58:32;26.10;60.10
8463;DHT22;4268;52.506;13.462;2023-07-13T13:01:02;26.30;60.20
8463;DHT22;4268;52.506;13.462;2023-07-13T13:03:49;26.40;59.80
8463;DHT22;4268;52.506;13.462;2023-07-13T13:08:45;26.50;60.00
8463;DHT22;4268;52.506;13.462;2023-07-13T13:11:11;26.60;59.10
8463;DHT22;4268;52.506;13.462;2023-07-13T13:13:36;26.70;58.10
8463;DHT22;4268;52.506;13.462;2023-07-13T13:16:19;26.50;58.40
8463;DHT22;4268;52.506;13.462;2023-07-13T13:18:45;26.50;57.90
8463;DHT22;4268;52.506;13.462;2023-07-13T13:21:11;26.40;57.60
8463;DHT22;4268;52.506;13.462;2023-07-13T13:23:37;26.30;57.50
8463;DHT22;4268;52.506;13.462;2023-07-13T13:26:03;26.40;57.10
8463;DHT22;4268;52.506;13.462;2023-07-13T13:28:29;26.40;57.90
8463;DHT22;4268;52.506;13.462;2023-07-13T13:30:54;26.50;58.10
8463;DHT22;4268;52.506;13.462;2023-07-13T13:33:21;26.50;57.80
8463;DHT22;4268;52.506;13.462;2023-07-13T13:35:47;26.60;57.60
8463;DHT22;4268;52.506;13.462;2023-07-13T13:38:14;26.60;57.70
8463;DHT22;4268;52.506;13.462;2023-07-13T13:40:42;26.60;58.90
8463;DHT22;4268;52.506;13.462;2023-07-13T13:43:24;26.40;58.70
8463;DHT22;4268;52.506;13.462;2023-07-13T13:45:55;26.40;59.00
8463;DHT22;4268;52.506;13.462;2023-07-13T13:48:34;26.40;58.90
8463;DHT22;4268;52.506;13.462;2023-07-13T13:51:06;26.50;59.20
8463;DHT22;4268;52.506;13.462;2023-07-13T13:53:37;26.60;58.50
8463;DHT22;4268;52.506;13.462;2023-07-13T13:56:04;26.50;57.30
8463;DHT22;4268;52.506;13.462;2023-07-13T13:58:30;26.50;57.70
8463;DHT22;4268;52.506;13.462;2023-07-13T14:00:56;26.50;57.70
8463;DHT22;4268;52.506;13.462;2023-07-13T14:03:21;26.50;58.70
8463;DHT22;4268;52.506;13.462;2023-07-13T14:05:48;26.70;58.60
8463;DHT22;4268;52.506;13.462;2023-07-13T14:08:15;26.70;57.80
8463;DHT22;4268;52.506;13.462;2023-07-13T14:10:41;26.80;57.90
8463;DHT22;4268;52.506;13.462;2023-07-13T14:13:16;26.80;57.90
8463;DHT22;4268;52.506;13.462;2023-07-13T14:15:44;26.80;57.30
8463;DHT22;4268;52.506;13.462;2023-07-13T14:18:10;26.80;58.40
8463;DHT22;4268;52.506;13.462;2023-07-13T14:20:37;26.60;57.50
8463;DHT22;4268;52.506;13.462;2023-07-13T14:23:02;26.70;58.10
8463;DHT22;4268;52.506;13.462;2023-07-13T14:25:28;26.70;58.70
8463;DHT22;4268;52.506;13.462;2023-07-13T14:27:57;26.70;56.80
8463;DHT22;4268;52.506;13.462;2023-07-13T14:30:24;26.70;56.40
8463;DHT22;4268;52.506;13.462;2023-07-13T14:32:50;26.70;56.00
8463;DHT22;4268;52.506;13.462;2023-07-13T14:35:19;26.70;56.20
8463;DHT22;4268;52.506;13.462;2023-07-13T14:37:47;26.70;57.40
8463;DHT22;4268;52.506;13.462;2023-07-13T14:40:29;26.50;57.90
8463;DHT22;4268;52.506;13.462;2023-07-13T14:42:55;26.50;58.30
8463;DHT22;4268;52.506;13.462;2023-07-13T14:45:21;26.50;58.40
8463;DHT22;4268;52.506;13.462;2023-07-13T14:47:47;26.50;57.60
8463;DHT22;4268;52.506;13.462;2023-07-13T14:50:21;26.60;57.70
8463;DHT22;4268;52.506;13.462;2023-07-13T14:52:47;26.70;57.50
8463;DHT22;4268;52.506;13.462;2023-07-13T14:55:18;26.70;57.80
8463;DHT22;4268;52.506;13.462;2023-07-13T14:57:44;26.60;57.80
8463;DHT22;4268;52.506;13.462;2023-07-13T15:00:15;26.50;58.10
8463;DHT22;4268;52.506;13.462;2023-07-13T15:02:43;26.40;58.20
8463;DHT22;4268;52.506;13.462;2023-07-13T15:05:13;26.20;58.40
8463;DHT22;4268;52.506;13.462;2023-07-13T15:07:40;26.30;57.70
8463;DHT22;4268;52.506;13.462;2023-07-13T15:10:20;26.20;57.70
8463;DHT22;4268;52.506;13.462;2023-07-13T15:12:47;26.30;57.90
8463;DHT22;4268;52.506;13.462;2023-07-13T15:15:13;26.30;57.70
8463;DHT22;4268;52.506;13.462;2023-07-13T15:17:41;26.30;57.80
8463;DHT22;4268;52.506;13.462;2023-07-13T15:20:28;26.30;57.90
8463;DHT22;4268;52.506;13.462;2023-07-13T15:22:55;26.20;57.30
8463;DHT22;4268;52.506;13.462;2023-07-13T15:25:23;26.20;57.20
8463;DHT22;4268;52.506;13.462;2023-07-13T15:27:53;26.20;57.50
8463;DHT22;4268;52.506;13.462;2023-07-13T15:30:20;26.20;56.30
8463;DHT22;4268;52.506;13.462;2023-07-13T15:32:47;26.20;56.90
8463;DHT22;4268;52.506;13.462;2023-07-13T15:35:21;26.20;56.90
8463;DHT22;4268;52.506;13.462;2023-07-13T15:37:47;26.20;55.00
8463;DHT22;4268;52.506;13.462;2023-07-13T15:40:14;26.20;55.20
8463;DHT22;4268;52.506;13.462;2023-07-13T15:42:44;26.10;55.50
8463;DHT22;4268;52.506;13.462;2023-07-13T15:45:20;26.00;55.90
8463;DHT22;4268;52.506;13.462;2023-07-13T15:47:46;26.00;56.10
8463;DHT22;4268;52.506;13.462;2023-07-13T15:50:20;26.00;56.10
8463;DHT22;4268;52.506;13.462;2023-07-13T15:52:53;26.00;56.10
8463;DHT22;4268;52.506;13.462;2023-07-13T15:55:20;26.00;56.40
8463;DHT22;4268;52.506;13.462;2023-07-13T15:57:50;25.90;56.50
8463;DHT22;4268;52.506;13.462;2023-07-13T16:00:24;25.90;56.80
8463;DHT22;4268;52.506;13.462;2023-07-13T16:02:51;25.90;56.80
8463;DHT22;4268;52.506;13.462;2023-07-13T16:05:18;25.90;57.20
8463;DHT22;4268;52.506;13.462;2023-07-13T16:07:45;25.80;56.80
8463;DHT22;4268;52.506;13.462;2023-07-13T16:10:56;25.80;57.40
8463;DHT22;4268;52.506;13.462;2023-07-13T16:13:15;25.70;57.50
8463;DHT22;4268;52.506;13.462;2023-07-13T16:15:41;25.70;57.80
8463;DHT22;4268;52.506;13.462;2023-07-13T16:18:13;25.70;58.10
8463;DHT22;4268;52.506;13.462;2023-07-13T16:20:39;25.70;57.30
8463;DHT22;4268;52.506;13.462;2023-07-13T16:23:05;25.80;57.00
8463;DHT22;4268;52.506;13.462;2023-07-13T16:25:31;25.80;56.70